METAR Data
IDs: Format: Raw Decoded Include TAF

Data at: 0717 UTC 22 Jan 2021

KAEL 220715Z AUTO 31006KT 10SM CLR M14/M17 A3009 RMK AO2
KAEL 220655Z AUTO 33009KT 10SM CLR M14/M17 A3008 RMK AO2
KAEL 220635Z AUTO 32009KT 10SM CLR M14/M17 A3008 RMK AO2
KAEL 220615Z AUTO 32009G14KT 10SM CLR M14/M16 A3007 RMK AO2
KAEL 220556Z AUTO 31009KT 10SM CLR M13/M16 A3007 RMK AO2
KAEL 220536Z AUTO 32008KT 10SM CLR M13/M16 A3007 RMK
KAEL 220515Z AUTO 32010KT 290V350 10SM CLR M13/M16 A3006 RMK AO2
KAEL 220455Z AUTO 31008G15KT 10SM CLR M13/M16 A3006 RMK AO2
KAEL 220435Z AUTO 31010G15KT 10SM CLR M13/M16 A3005 RMK AO2
KAEL 220415Z AUTO 32009G20KT 10SM CLR M12/M16 A3004 RMK AO2
KAEL 220355Z AUTO 32009G17KT 290V350 10SM CLR M12/M15 A3004 RMK AO2
KAEL 220335Z AUTO 31008G17KT 10SM SCT015 M12/M14 A3003 RMK AO2
KAEL 220315Z AUTO 31009G16KT 10SM SCT015 M11/M14 A3002 RMK AO2
KAEL 220255Z AUTO 32008KT 10SM CLR M11/M14 A3001 RMK AO2
KAEL 220235Z AUTO 31011G19KT 10SM CLR M09/M13 A3000 RMK AO2
KAEL 220215Z AUTO 32014G18KT 10SM BKN065 M09/M13 A2998 RMK AO2
KAEL 220155Z AUTO 31010G21KT 10SM BKN065 M08/M12 A2997 RMK AO2
KAEL 220135Z AUTO 30013G20KT 10SM OVC065 M08/M12 A2995 RMK AO2
KAEL 220115Z AUTO 31011G21KT 10SM OVC065 M07/M12 A2995 RMK AO2
KAEL 220055Z AUTO 31015G21KT 10SM OVC065 M07/M12 A2994 RMK AO2
KAEL 220035Z AUTO 31013G26KT 10SM OVC075 M06/M11 A2993 RMK AO2
KAEL 220015Z AUTO 30014G21KT 10SM OVC075 M05/M09 A2992 RMK AO2
KAEL 212355Z AUTO 31012G21KT 10SM OVC075 M05/M11 A2991 RMK AO2
KAEL 212335Z AUTO 31012G19KT 10SM BKN075 M04/M09 A2990 RMK AO2
KAEL 212315Z AUTO 30013G20KT 10SM SCT037 SCT075 M03/M07 A2989 RMK AO2
KAEL 212255Z AUTO 31013G24KT 7SM OVC039 M03/M08 A2988 RMK AO2
KAEL 212235Z AUTO 30011G18KT 10SM OVC039 M02/M06 A2987 RMK AO2
KAEL 212215Z AUTO 31012G20KT 10SM SCT028 OVC035 M02/M06 A2986 RMK AO2
KAEL 212155Z AUTO 31015G25KT 10SM SCT019 BKN025 OVC030 M02/M06 A2986 RMK AO2
KAEL 212135Z AUTO 32016G26KT 3SM -SN BKN021 OVC030 M01/M03 A2984 RMK AO2
KAEL 212115Z AUTO 29009G17KT 7SM -SN BKN024 OVC032 M01/M03 A2983 RMK AO2
KAEL 212055Z AUTO 30011G16KT 270V330 10SM BKN023 OVC030 M01/M03 A2982 RMK AO2
KAEL 212035Z AUTO 29012G18KT 7SM -SN OVC023 M01/M03 A2982 RMK AO2
KAEL 212015Z AUTO 29014G20KT 7SM -SN OVC025 M01/M03 A2981 RMK AO2
KAEL 211955Z AUTO 29009G19KT 10SM BKN025 OVC030 00/M04 A2980 RMK AO2
KAEL 211935Z AUTO 29012G22KT 10SM SCT029 00/M04 A2980 RMK AO2
KAEL 211915Z AUTO 29014G18KT 10SM SCT026 SCT036 BKN047 01/M04 A2979 RMK AO2
KAEL 211855Z AUTO 29011G20KT 260V320 10SM BKN028 OVC035 00/M04 A2979 RMK AO2
KAEL 211835Z AUTO 29011G18KT 10SM BKN028 OVC037 00/M04 A2979 RMK AO2
KAEL 211815Z AUTO 29010G20KT 10SM SCT028 00/M04 A2979 RMK AO2
KAEL 211755Z AUTO 29010G20KT 10SM CLR 01/M04 A2979 RMK AO2
KAEL 211735Z AUTO 28010G15KT 10SM CLR 00/M04 A2979 RMK AO2
KAEL 211715Z AUTO 29009G16KT 10SM CLR 00/M04 A2979 RMK AO2
KAEL 211655Z AUTO 29009G17KT 10SM CLR 00/M05 A2979 RMK AO2
KAEL 211635Z AUTO 29007G14KT 260V340 10SM CLR M01/M05 A2979 RMK AO2
KAEL 211615Z AUTO 29010G15KT 10SM CLR M01/M06 A2978 RMK AO2
KAEL 211555Z AUTO 28008KT 10SM CLR M01/M06 A2978 RMK AO2
KAEL 211535Z AUTO 28010G17KT 10SM CLR M01/M06 A2977 RMK AO2
KAEL 211515Z AUTO 27009G15KT 10SM CLR M01/M06 A2977 RMK AO2
KAEL 211455Z AUTO 27010G16KT 10SM CLR M01/M06 A2976 RMK AO2
KAEL 211435Z AUTO 27010G16KT 10SM CLR M02/M07 A2976 RMK AO2
KAEL 211415Z AUTO 28010G16KT 250V310 10SM CLR M02/M07 A2975 RMK AO2
KAEL 211355Z AUTO 27009G16KT 10SM CLR M02/M07 A2974 RMK AO2
KAEL 211335Z AUTO 27010G18KT 10SM CLR M02/M07 A2974 RMK AO2